createdAt,value
2018-06-09T00:01:19.028Z,18.19
2018-06-09T00:03:50.089Z,18.24
2018-06-09T00:06:21.032Z,18.25
2018-06-09T00:08:52.192Z,18.09
2018-06-09T00:11:46.132Z,17.99
2018-06-09T00:14:17.185Z,18.11
2018-06-09T00:16:48.209Z,18.11
2018-06-09T00:19:35.748Z,18.04
2018-06-09T00:22:07.405Z,17.77
2018-06-09T00:24:38.619Z,17.87
2018-06-09T00:27:09.708Z,18.13
2018-06-09T00:29:40.853Z,17.78
2018-06-09T00:32:12.032Z,17.84
2018-06-09T00:34:43.237Z,17.79
2018-06-09T00:37:15.109Z,17.88
2018-06-09T00:39:47.201Z,17.96
2018-06-09T00:42:18.667Z,17.96
2018-06-09T00:45:52.969Z,17.89
2018-06-09T00:48:24.085Z,17.90
2018-06-09T00:50:55.655Z,17.85
2018-06-09T00:53:27.185Z,17.73
2018-06-09T00:56:10.396Z,17.78
2018-06-09T00:58:41.465Z,17.69
2018-06-09T01:01:12.672Z,17.86
2018-06-09T01:03:44.319Z,17.91
2018-06-09T01:06:15.576Z,17.84
2018-06-09T01:08:46.684Z,17.86
2018-06-09T01:11:17.887Z,17.79
2018-06-09T01:13:49.327Z,17.45
2018-06-09T01:16:20.547Z,17.36
2018-06-09T01:19:06.028Z,17.63
2018-06-09T01:21:37.140Z,17.57
2018-06-09T01:24:08.542Z,17.47
2018-06-09T01:26:44.630Z,17.46
2018-06-09T01:29:15.849Z,17.50
2018-06-09T01:31:46.927Z,17.55
2018-06-09T01:34:18.244Z,17.57
2018-06-09T01:36:49.384Z,17.51
2018-06-09T01:39:20.875Z,17.47
2018-06-09T01:41:51.956Z,17.53
2018-06-09T01:44:23.126Z,17.52
2018-06-09T01:46:54.285Z,17.41
2018-06-09T01:49:25.395Z,17.46
2018-06-09T01:51:56.444Z,17.53
2018-06-09T01:54:27.547Z,17.42
2018-06-09T01:56:58.646Z,17.47
2018-06-09T01:59:29.848Z,17.41
2018-06-09T02:02:00.955Z,17.49
2018-06-09T02:04:32.098Z,17.46
2018-06-09T02:07:22.149Z,17.43
2018-06-09T02:09:53.512Z,17.45
2018-06-09T02:12:24.685Z,17.41
2018-06-09T02:14:55.971Z,17.26
2018-06-09T02:17:27.012Z,17.08
2018-06-09T02:19:58.131Z,17.12
2018-06-09T02:22:29.324Z,17.25
2018-06-09T02:25:00.712Z,17.18
2018-06-09T02:27:32.031Z,17.01
2018-06-09T02:30:03.456Z,16.83
2018-06-09T02:32:34.491Z,16.83
2018-06-09T02:35:05.961Z,17.07
2018-06-09T02:37:37.149Z,16.73
2018-06-09T02:40:08.173Z,16.40
2018-06-09T02:42:39.269Z,16.51
2018-06-09T02:45:10.492Z,16.58
2018-06-09T02:47:41.695Z,16.60
2018-06-09T02:50:12.891Z,16.85
2018-06-09T02:52:43.976Z,16.97
2018-06-09T02:55:33.852Z,16.99
2018-06-09T02:58:04.937Z,17.01
2018-06-09T03:00:36.451Z,17.12
2018-06-09T03:03:07.520Z,16.74
2018-06-09T03:05:38.660Z,16.92
2018-06-09T03:08:13.138Z,16.88
2018-06-09T03:10:44.244Z,16.90
2018-06-09T03:13:15.451Z,16.88
2018-06-09T03:15:47.333Z,17.01
2018-06-09T03:18:18.455Z,17.01
2018-06-09T03:20:55.373Z,16.92
2018-06-09T03:23:26.504Z,16.82
2018-06-09T03:25:57.490Z,16.93
2018-06-09T03:28:28.992Z,16.99
2018-06-09T03:31:00.414Z,16.96
2018-06-09T03:33:31.553Z,16.94
2018-06-09T03:36:02.906Z,16.62
2018-06-09T03:38:34.051Z,16.49
2018-06-09T03:41:13.689Z,16.74
2018-06-09T03:43:44.482Z,16.83
2018-06-09T03:46:15.487Z,16.81
2018-06-09T03:48:47.065Z,16.93
2018-06-09T03:51:18.291Z,16.99
2018-06-09T03:53:49.568Z,17.05
2018-06-09T03:56:21.053Z,17.12
2018-06-09T03:58:52.320Z,17.21
2018-06-09T04:01:24.113Z,17.35
2018-06-09T04:03:55.360Z,17.12
2018-06-09T04:06:27.572Z,17.06
2018-06-09T04:08:58.636Z,16.97
2018-06-09T04:11:35.860Z,17.11
2018-06-09T04:14:06.996Z,17.21
2018-06-09T04:16:38.712Z,17.12
2018-06-09T04:19:10.064Z,17.15
2018-06-09T04:21:41.190Z,17.27
2018-06-09T04:24:12.387Z,17.12
2018-06-09T04:26:43.937Z,17.21
2018-06-09T04:29:15.184Z,17.38
2018-06-09T04:31:46.307Z,17.49
2018-06-09T04:34:17.530Z,17.46
2018-06-09T04:36:48.889Z,17.51
2018-06-09T04:39:19.951Z,17.45
2018-06-09T04:41:51.367Z,17.44
2018-06-09T04:44:22.628Z,17.63
2018-06-09T04:46:53.664Z,17.60
2018-06-09T04:49:24.691Z,17.49
2018-06-09T04:51:56.446Z,17.67
2018-06-09T04:54:27.615Z,18.02
2018-06-09T04:56:58.888Z,18.11
2018-06-09T04:59:36.948Z,18.28
2018-06-09T05:02:08.841Z,18.12
2018-06-09T05:04:40.060Z,18.07
2018-06-09T05:07:11.291Z,17.88
2018-06-09T05:09:42.231Z,18.21
2018-06-09T05:12:13.050Z,18.40
2018-06-09T05:14:43.928Z,18.55
2018-06-09T05:17:14.749Z,18.59
2018-06-09T05:19:45.550Z,18.76
2018-06-09T05:22:16.652Z,18.89
2018-06-09T05:24:47.525Z,18.92
2018-06-09T05:27:18.976Z,18.99
2018-06-09T05:29:49.961Z,18.91
2018-06-09T05:32:21.135Z,18.92
2018-06-09T05:34:52.238Z,18.98
2018-06-09T05:37:23.456Z,19.16
2018-06-09T05:39:54.524Z,19.17
2018-06-09T05:42:26.395Z,19.31
2018-06-09T05:44:58.093Z,19.56
2018-06-09T05:47:35.408Z,19.62
2018-06-09T05:50:06.518Z,19.77
2018-06-09T05:52:37.791Z,19.81
2018-06-09T05:55:08.924Z,19.99
2018-06-09T05:57:40.345Z,20.06
2018-06-09T06:00:11.418Z,20.27
2018-06-09T06:02:42.554Z,20.55
2018-06-09T06:05:13.772Z,20.69
2018-06-09T06:07:45.113Z,20.83
2018-06-09T06:10:16.501Z,20.96
2018-06-09T06:12:47.632Z,21.00
2018-06-09T06:15:19.242Z,21.08
2018-06-09T06:17:50.383Z,21.10
2018-06-09T06:20:21.559Z,21.17
2018-06-09T06:22:53.112Z,21.23
2018-06-09T06:25:42.679Z,21.19
2018-06-09T06:28:13.832Z,21.36
2018-06-09T06:30:45.220Z,21.50
2018-06-09T06:36:12.407Z,21.61
2018-06-09T06:38:43.715Z,21.74
2018-06-09T06:41:14.959Z,21.78
2018-06-09T06:43:46.307Z,21.85
2018-06-09T06:46:17.548Z,22.04
2018-06-09T06:48:49.090Z,22.06
2018-06-09T06:51:20.343Z,22.31
2018-06-09T06:53:51.298Z,22.39
2018-06-09T06:56:23.848Z,22.43
2018-06-09T06:58:55.182Z,22.54
2018-06-09T07:01:26.252Z,22.54
2018-06-09T07:04:02.845Z,22.53
2018-06-09T07:06:33.935Z,22.51
2018-06-09T07:09:06.761Z,22.72
2018-06-09T07:11:37.995Z,22.70
2018-06-09T07:14:09.405Z,22.81
2018-06-09T07:16:40.600Z,23.10
2018-06-09T07:19:14.413Z,23.24
2018-06-09T07:21:45.612Z,23.22
2018-06-09T07:24:16.728Z,23.19
2018-06-09T07:26:51.190Z,23.28
2018-06-09T07:29:22.215Z,23.32
2018-06-09T07:31:53.377Z,23.40
2018-06-09T07:34:29.716Z,23.41
2018-06-09T07:37:01.023Z,23.50
2018-06-09T07:39:32.095Z,23.52
2018-06-09T07:42:03.196Z,23.69
2018-06-09T07:44:34.729Z,23.73
2018-06-09T07:47:05.690Z,23.81
2018-06-09T07:49:37.017Z,23.85
2018-06-09T07:52:08.096Z,23.87
2018-06-09T07:54:39.320Z,23.90
2018-06-09T07:57:11.168Z,24.15
2018-06-09T07:59:42.941Z,24.22
2018-06-09T08:02:14.079Z,24.26
2018-06-09T08:04:53.116Z,24.40
2018-06-09T08:07:23.903Z,24.37
2018-06-09T08:09:54.888Z,24.47
2018-06-09T08:12:25.992Z,24.45
2018-06-09T08:14:57.133Z,24.47
2018-06-09T08:17:27.955Z,24.59
2018-06-09T08:19:59.190Z,24.76
2018-06-09T08:22:30.752Z,24.86
2018-06-09T08:25:02.129Z,24.88
2018-06-09T08:30:09.677Z,24.94
2018-06-09T08:32:40.903Z,24.83
2018-06-09T08:35:11.796Z,25.04
2018-06-09T08:37:42.925Z,25.19
2018-06-09T08:40:14.175Z,25.21
2018-06-09T08:42:45.247Z,25.16
2018-06-09T08:45:16.549Z,25.34
2018-06-09T08:47:47.653Z,25.35
2018-06-09T08:50:18.848Z,25.16
2018-06-09T08:52:50.152Z,25.03
2018-06-09T08:55:21.848Z,25.10
2018-06-09T08:57:53.127Z,25.30
2018-06-09T09:00:24.399Z,25.49
2018-06-09T09:02:55.488Z,25.61
2018-06-09T09:05:26.567Z,25.62
2018-06-09T09:07:57.371Z,25.72
2018-06-09T09:10:28.816Z,25.83
2018-06-09T09:13:00.038Z,25.32
2018-06-09T09:15:31.978Z,25.53
2018-06-09T09:18:03.137Z,25.69
2018-06-09T09:20:34.371Z,26.01
2018-06-09T09:23:06.470Z,25.80
2018-06-09T09:25:38.095Z,25.57
2018-06-09T09:28:09.574Z,25.30
2018-06-09T09:30:41.228Z,25.75
2018-06-09T09:33:12.387Z,26.02
2018-06-09T09:35:43.615Z,26.04
2018-06-09T09:38:14.664Z,26.15
2018-06-09T09:40:46.129Z,26.09
2018-06-09T09:43:17.268Z,25.85
2018-06-09T09:45:48.599Z,26.07
2018-06-09T09:48:19.856Z,26.16
2018-06-09T09:50:50.985Z,26.40
2018-06-09T09:53:22.014Z,26.17
2018-06-09T09:55:54.069Z,26.44
2018-06-09T09:58:25.205Z,26.75
2018-06-09T10:00:56.409Z,26.97
2018-06-09T10:03:27.609Z,27.02
2018-06-09T10:05:58.643Z,27.14
2018-06-09T10:08:35.660Z,27.27
2018-06-09T10:11:06.751Z,26.94
2018-06-09T10:13:37.960Z,26.86
2018-06-09T10:16:09.467Z,26.76
2018-06-09T10:18:40.636Z,26.80
2018-06-09T10:21:33.953Z,26.56
2018-06-09T10:24:05.029Z,26.39
2018-06-09T10:26:36.452Z,26.22
2018-06-09T10:29:07.616Z,26.09
2018-06-09T10:31:39.006Z,25.98
2018-06-09T10:34:10.347Z,26.05
2018-06-09T10:36:41.368Z,26.27
2018-06-09T10:39:12.533Z,26.63
2018-06-09T10:41:43.914Z,26.84
2018-06-09T10:44:15.009Z,26.53
2018-06-09T10:46:46.152Z,26.37
2018-06-09T10:49:17.395Z,26.46
2018-06-09T10:51:48.799Z,26.77
2018-06-09T10:54:19.966Z,26.91
2018-06-09T10:56:51.024Z,27.06
2018-06-09T10:59:22.201Z,27.21
2018-06-09T11:01:53.745Z,27.51
2018-06-09T11:04:24.867Z,27.57
2018-06-09T11:06:55.859Z,27.74
2018-06-09T11:09:26.772Z,27.64
2018-06-09T11:11:57.648Z,27.49
2018-06-09T11:14:28.460Z,27.59
2018-06-09T11:16:59.280Z,27.79
2018-06-09T11:19:30.144Z,27.95
2018-06-09T11:22:05.069Z,27.53
2018-06-09T11:24:37.477Z,26.78
2018-06-09T11:27:08.977Z,25.69
2018-06-09T11:29:40.065Z,25.41
2018-06-09T11:32:11.616Z,25.08
2018-06-09T11:34:42.891Z,24.67
2018-06-09T11:37:14.004Z,24.05
2018-06-09T11:39:45.101Z,23.55
2018-06-09T11:42:16.394Z,22.33
2018-06-09T11:44:47.441Z,22.24
2018-06-09T11:47:18.661Z,22.04
2018-06-09T11:49:49.853Z,21.62
2018-06-09T11:52:20.992Z,21.30
2018-06-09T11:54:52.175Z,21.41
2018-06-09T11:57:24.061Z,21.03
2018-06-09T11:59:55.295Z,21.08
2018-06-09T12:02:30.682Z,20.50
2018-06-09T12:05:01.491Z,20.76
2018-06-09T12:07:32.371Z,20.50
2018-06-09T12:10:03.561Z,20.57
2018-06-09T12:12:35.459Z,20.66
2018-06-09T12:15:06.447Z,20.63
2018-06-09T12:17:37.887Z,20.33
2018-06-09T12:20:08.754Z,20.51
2018-06-09T12:22:40.600Z,20.75
2018-06-09T12:25:11.413Z,20.77
2018-06-09T12:27:42.557Z,20.73
2018-06-09T12:30:13.994Z,21.01
2018-06-09T12:32:45.225Z,21.20
2018-06-09T12:35:16.544Z,21.12
2018-06-09T12:37:47.670Z,21.02
2018-06-09T12:40:18.903Z,20.87
2018-06-09T12:42:53.999Z,20.95
2018-06-09T12:45:25.327Z,20.79
2018-06-09T12:47:56.140Z,20.56
2018-06-09T12:50:27.330Z,20.55
2018-06-09T12:53:10.861Z,20.63
2018-06-09T12:55:42.001Z,20.58
2018-06-09T12:58:13.041Z,20.18
2018-06-09T13:00:44.176Z,19.96
2018-06-09T13:03:15.065Z,19.93
2018-06-09T13:05:45.906Z,20.31
2018-06-09T13:08:16.752Z,20.35
2018-06-09T13:10:47.556Z,20.58
2018-06-09T13:13:22.432Z,20.79
2018-06-09T13:15:53.627Z,20.37
2018-06-09T13:18:25.204Z,20.60
2018-06-09T13:23:54.884Z,20.64
2018-06-09T13:26:25.920Z,20.73
2018-06-09T13:28:57.052Z,20.91
2018-06-09T13:31:27.904Z,20.91
2018-06-09T13:33:59.151Z,20.77
2018-06-09T13:36:30.144Z,20.84
2018-06-09T13:39:01.048Z,20.95
2018-06-09T13:41:32.296Z,20.91
2018-06-09T13:44:03.276Z,20.72
2018-06-09T13:46:34.413Z,20.78
2018-06-09T13:49:05.748Z,21.02
2018-06-09T13:51:49.151Z,20.97
2018-06-09T13:54:20.424Z,21.07
2018-06-09T13:56:51.657Z,20.99
2018-06-09T13:59:22.846Z,21.00
2018-06-09T14:01:57.424Z,20.99
2018-06-09T14:04:28.372Z,20.90
2018-06-09T14:06:59.447Z,20.99
2018-06-09T14:09:30.566Z,20.65
2018-06-09T14:12:01.680Z,20.87
2018-06-09T14:14:32.884Z,20.90
2018-06-09T14:17:04.204Z,20.71
2018-06-09T14:19:35.272Z,20.67
2018-06-09T14:22:06.514Z,20.71
2018-06-09T14:24:37.349Z,20.54
2018-06-09T14:27:08.528Z,20.51
2018-06-09T14:29:39.999Z,20.71
2018-06-09T14:32:11.055Z,20.67
2018-06-09T14:34:56.011Z,20.67
2018-06-09T14:37:27.257Z,20.92
2018-06-09T14:39:58.089Z,20.88
2018-06-09T14:42:29.217Z,20.92
2018-06-09T14:45:00.205Z,21.07
2018-06-09T14:47:31.058Z,20.97
2018-06-09T14:50:02.209Z,21.10
2018-06-09T14:52:33.072Z,21.13
2018-06-09T14:55:04.282Z,21.12
2018-06-09T14:57:35.515Z,21.36
2018-06-09T15:00:06.913Z,21.30
2018-06-09T15:03:00.599Z,21.28
2018-06-09T15:05:31.989Z,21.21
2018-06-09T15:08:03.506Z,21.27
2018-06-09T15:10:35.356Z,21.40
2018-06-09T15:13:06.443Z,21.42
2018-06-09T15:15:37.950Z,21.56
2018-06-09T15:18:09.057Z,21.30
2018-06-09T15:20:40.200Z,21.01
2018-06-09T15:23:11.015Z,21.22
2018-06-09T15:25:41.841Z,21.43
2018-06-09T15:28:13.042Z,21.51
2018-06-09T15:30:44.234Z,21.46
2018-06-09T15:33:15.227Z,21.47
2018-06-09T15:35:57.456Z,21.60
2018-06-09T15:38:29.629Z,21.59
2018-06-09T15:41:00.778Z,21.50
2018-06-09T15:43:37.069Z,21.57
2018-06-09T15:46:07.952Z,21.51
2018-06-09T15:48:38.761Z,21.54
2018-06-09T15:51:10.172Z,21.66
2018-06-09T15:53:41.007Z,21.65
2018-06-09T15:56:12.145Z,21.68
2018-06-09T15:58:43.002Z,21.91
2018-06-09T16:01:14.513Z,21.73
2018-06-09T16:03:45.632Z,21.64
2018-06-09T16:06:16.465Z,21.63
2018-06-09T16:08:47.304Z,21.46
2018-06-09T16:11:18.173Z,21.54
2018-06-09T16:13:48.997Z,21.56
2018-06-09T16:16:20.015Z,21.63
2018-06-09T16:18:51.235Z,21.59
2018-06-09T16:21:22.247Z,21.60
2018-06-09T16:24:00.633Z,21.71
2018-06-09T16:26:32.050Z,21.71
2018-06-09T16:29:03.274Z,21.71
2018-06-09T16:31:34.448Z,21.70
2018-06-09T16:34:05.753Z,21.66
2018-06-09T16:36:40.339Z,21.73
2018-06-09T16:39:14.602Z,21.75
2018-06-09T16:41:46.289Z,21.76
2018-06-09T16:44:17.516Z,21.66
2018-06-09T16:46:48.477Z,21.75
2018-06-09T22:46:22.393Z,19.15
2018-06-09T22:48:53.592Z,19.09
2018-06-09T22:51:24.957Z,18.70
2018-06-09T22:53:56.497Z,18.84
2018-06-09T22:56:27.648Z,18.98
2018-06-09T22:58:58.882Z,18.83
2018-06-09T23:01:29.974Z,18.71
2018-06-09T23:04:01.687Z,18.73
2018-06-09T23:09:30.852Z,18.67
2018-06-09T23:12:01.963Z,18.83
2018-06-09T23:14:42.798Z,18.42
2018-06-09T23:17:13.900Z,18.32
2018-06-09T23:19:45.030Z,18.52
2018-06-09T23:22:15.914Z,18.47
2018-06-09T23:24:46.816Z,18.62
2018-06-09T23:27:17.677Z,18.70
2018-06-09T23:29:48.705Z,18.73
2018-06-09T23:32:19.531Z,18.55
2018-06-09T23:34:51.011Z,18.65
2018-06-09T23:37:21.828Z,18.53
2018-06-09T23:39:53.085Z,18.56
2018-06-09T23:42:24.285Z,18.59
2018-06-09T23:44:55.940Z,18.62
2018-06-09T23:47:27.223Z,18.56
2018-06-09T23:49:58.914Z,18.54
2018-06-09T23:52:30.017Z,18.42
2018-06-09T23:55:01.139Z,18.27
2018-06-09T23:57:32.257Z,18.45
